sensor_id;sensor_type;location;lat;lon;timestamp;pressure;altitude;pressure_sealevel;temperature
63689;BMP280;54895;40.928;14.480;2023-07-31T00:01:27;101095.09;;;34.32
63689;BMP280;54895;40.928;14.480;2023-07-31T00:03:53;101093.16;;;34.54
63689;BMP280;54895;40.928;14.480;2023-07-31T00:06:19;101091.72;;;34.41
63689;BMP280;54895;40.928;14.480;2023-07-31T00:08:45;101089.72;;;34.54
63689;BMP280;54895;40.928;14.480;2023-07-31T00:11:12;101089.59;;;34.36
63689;BMP280;54895;40.928;14.480;2023-07-31T00:13:38;101079.94;;;34.37
63689;BMP280;54895;40.928;14.480;2023-07-31T00:16:04;101087.69;;;34.62
63689;BMP280;54895;40.928;14.480;2023-07-31T00:18:30;101078.38;;;34.16
63689;BMP280;54895;40.928;14.480;2023-07-31T00:20:56;101072.13;;;34.08
63689;BMP280;54895;40.928;14.480;2023-07-31T00:23:23;101076.88;;;33.99
63689;BMP280;54895;40.928;14.480;2023-07-31T00:25:49;101072.44;;;34.53
63689;BMP280;54895;40.928;14.480;2023-07-31T00:32:09;101075.97;;;34.66
63689;BMP280;54895;40.928;14.480;2023-07-31T00:34:37;101074.56;;;34.61
63689;BMP280;54895;40.928;14.480;2023-07-31T00:37:04;101070.25;;;34.36
63689;BMP280;54895;40.928;14.480;2023-07-31T00:39:30;101057.69;;;34.19
63689;BMP280;54895;40.928;14.480;2023-07-31T00:42:00;101064.56;;;34.12
63689;BMP280;54895;40.928;14.480;2023-07-31T00:44:27;101057.56;;;34.01
63689;BMP280;54895;40.928;14.480;2023-07-31T00:46:59;101047.72;;;33.82
63689;BMP280;54895;40.928;14.480;2023-07-31T00:49:30;101049.06;;;33.75
63689;BMP280;54895;40.928;14.480;2023-07-31T00:51:57;101042.81;;;33.73
63689;BMP280;54895;40.928;14.480;2023-07-31T00:54:25;101046.72;;;33.46
63689;BMP280;54895;40.928;14.480;2023-07-31T00:56:53;101037.50;;;33.24
63689;BMP280;54895;40.928;14.480;2023-07-31T00:59:21;101040.31;;;33.29
63689;BMP280;54895;40.928;14.480;2023-07-31T01:01:49;101037.63;;;33.35
63689;BMP280;54895;40.928;14.480;2023-07-31T01:04:16;101034.88;;;33.37
63689;BMP280;54895;40.928;14.480;2023-07-31T01:07:19;101032.13;;;33.39
63689;BMP280;54895;40.928;14.480;2023-07-31T01:10:26;101031.38;;;33.31
63689;BMP280;54895;40.928;14.480;2023-07-31T01:12:36;101019.50;;;33.19
63689;BMP280;54895;40.928;14.480;2023-07-31T01:15:11;101018.25;;;32.74
63689;BMP280;54895;40.928;14.480;2023-07-31T01:17:39;101019.06;;;32.83
63689;BMP280;54895;40.928;14.480;2023-07-31T01:20:22;101023.22;;;32.84
63689;BMP280;54895;40.928;14.480;2023-07-31T01:31:26;101015.28;;;33.12
63689;BMP280;54895;40.928;14.480;2023-07-31T01:34:00;101012.84;;;33.41
63689;BMP280;54895;40.928;14.480;2023-07-31T01:36:28;101008.13;;;33.54
63689;BMP280;54895;40.928;14.480;2023-07-31T01:39:02;100999.81;;;33.46
63689;BMP280;54895;40.928;14.480;2023-07-31T01:41:30;101001.88;;;33.49
63689;BMP280;54895;40.928;14.480;2023-07-31T01:43:57;100990.91;;;33.55
63689;BMP280;54895;40.928;14.480;2023-07-31T01:46:23;100992.44;;;33.70
63689;BMP280;54895;40.928;14.480;2023-07-31T01:48:50;100991.63;;;33.58
63689;BMP280;54895;40.928;14.480;2023-07-31T01:51:16;100984.16;;;33.76
63689;BMP280;54895;40.928;14.480;2023-07-31T01:53:43;100988.84;;;33.58
63689;BMP280;54895;40.928;14.480;2023-07-31T01:56:09;100980.44;;;33.42
63689;BMP280;54895;40.928;14.480;2023-07-31T01:58:53;100985.22;;;33.39
63689;BMP280;54895;40.928;14.480;2023-07-31T02:01:23;100978.47;;;33.50
63689;BMP280;54895;40.928;14.480;2023-07-31T02:03:49;100975.88;;;33.72
63689;BMP280;54895;40.928;14.480;2023-07-31T02:06:16;100984.13;;;33.68
63689;BMP280;54895;40.928;14.480;2023-07-31T02:08:43;100979.81;;;33.49
63689;BMP280;54895;40.928;14.480;2023-07-31T02:11:09;100979.91;;;33.57
63689;BMP280;54895;40.928;14.480;2023-07-31T02:13:36;100977.69;;;33.44
63689;BMP280;54895;40.928;14.480;2023-07-31T02:16:02;100985.13;;;33.29
63689;BMP280;54895;40.928;14.480;2023-07-31T02:18:29;100979.59;;;33.29
63689;BMP280;54895;40.928;14.480;2023-07-31T02:20:55;100971.22;;;33.14
63689;BMP280;54895;40.928;14.480;2023-07-31T02:23:22;100972.94;;;33.56
63689;BMP280;54895;40.928;14.480;2023-07-31T02:25:48;100968.75;;;32.80
63689;BMP280;54895;40.928;14.480;2023-07-31T02:32:02;100970.06;;;33.38
63689;BMP280;54895;40.928;14.480;2023-07-31T02:34:29;100970.84;;;32.84
63689;BMP280;54895;40.928;14.480;2023-07-31T02:36:55;100972.91;;;33.48
63689;BMP280;54895;40.928;14.480;2023-07-31T02:39:21;100968.09;;;32.84
63689;BMP280;54895;40.928;14.480;2023-07-31T02:41:47;100967.44;;;32.85
63689;BMP280;54895;40.928;14.480;2023-07-31T02:44:14;100971.53;;;32.84
63689;BMP280;54895;40.928;14.480;2023-07-31T02:46:40;100968.06;;;32.82
63689;BMP280;54895;40.928;14.480;2023-07-31T02:49:06;100967.25;;;33.36
63689;BMP280;54895;40.928;14.480;2023-07-31T02:51:33;100972.31;;;32.93
63689;BMP280;54895;40.928;14.480;2023-07-31T02:53:59;100972.97;;;32.89
63689;BMP280;54895;40.928;14.480;2023-07-31T02:56:25;100966.13;;;33.61
63689;BMP280;54895;40.928;14.480;2023-07-31T02:58:52;100976.25;;;32.76
63689;BMP280;54895;40.928;14.480;2023-07-31T03:01:18;100972.22;;;32.83
63689;BMP280;54895;40.928;14.480;2023-07-31T03:03:45;100971.97;;;32.63
63689;BMP280;54895;40.928;14.480;2023-07-31T03:06:11;100974.66;;;32.57
63689;BMP280;54895;40.928;14.480;2023-07-31T03:08:38;100971.44;;;32.76
63689;BMP280;54895;40.928;14.480;2023-07-31T03:11:04;100974.97;;;32.83
63689;BMP280;54895;40.928;14.480;2023-07-31T03:13:30;100968.56;;;33.25
63689;BMP280;54895;40.928;14.480;2023-07-31T03:15:56;100972.53;;;33.13
63689;BMP280;54895;40.928;14.480;2023-07-31T03:18:23;100963.13;;;33.33
63689;BMP280;54895;40.928;14.480;2023-07-31T03:20:49;100959.25;;;33.66
63689;BMP280;54895;40.928;14.480;2023-07-31T03:23:16;100970.25;;;33.62
63689;BMP280;54895;40.928;14.480;2023-07-31T03:25:58;100962.00;;;33.60
63689;BMP280;54895;40.928;14.480;2023-07-31T03:32:21;100966.97;;;33.82
63689;BMP280;54895;40.928;14.480;2023-07-31T03:34:47;100966.19;;;33.71
63689;BMP280;54895;40.928;14.480;2023-07-31T03:37:13;100968.63;;;34.24
63689;BMP280;54895;40.928;14.480;2023-07-31T03:39:39;100973.41;;;34.16
63689;BMP280;54895;40.928;14.480;2023-07-31T03:42:07;100962.00;;;33.66
63689;BMP280;54895;40.928;14.480;2023-07-31T03:44:33;100971.75;;;33.75
63689;BMP280;54895;40.928;14.480;2023-07-31T03:46:59;100972.94;;;33.56
63689;BMP280;54895;40.928;14.480;2023-07-31T03:49:26;100972.28;;;33.58
63689;BMP280;54895;40.928;14.480;2023-07-31T03:51:52;100976.47;;;33.61
63689;BMP280;54895;40.928;14.480;2023-07-31T03:54:18;100977.13;;;33.53
63689;BMP280;54895;40.928;14.480;2023-07-31T03:56:44;100977.94;;;33.70
63689;BMP280;54895;40.928;14.480;2023-07-31T03:59:11;100979.97;;;33.69
63689;BMP280;54895;40.928;14.480;2023-07-31T04:01:37;100982.56;;;33.47
63689;BMP280;54895;40.928;14.480;2023-07-31T04:04:03;100984.69;;;33.57
63689;BMP280;54895;40.928;14.480;2023-07-31T04:06:30;100986.56;;;33.36
63689;BMP280;54895;40.928;14.480;2023-07-31T04:08:56;100991.25;;;32.63
63689;BMP280;54895;40.928;14.480;2023-07-31T04:11:22;100997.09;;;32.87
63689;BMP280;54895;40.928;14.480;2023-07-31T04:13:48;101002.59;;;32.89
63689;BMP280;54895;40.928;14.480;2023-07-31T04:16:15;100996.69;;;33.14
63689;BMP280;54895;40.928;14.480;2023-07-31T04:18:41;100997.31;;;33.07
63689;BMP280;54895;40.928;14.480;2023-07-31T04:21:07;101000.25;;;33.26
63689;BMP280;54895;40.928;14.480;2023-07-31T04:23:33;101004.44;;;33.27
63689;BMP280;54895;40.928;14.480;2023-07-31T04:26:00;101008.44;;;33.15
63689;BMP280;54895;40.928;14.480;2023-07-31T04:32:16;101014.78;;;34.06
63689;BMP280;54895;40.928;14.480;2023-07-31T04:34:43;101006.81;;;34.58
63689;BMP280;54895;40.928;14.480;2023-07-31T04:37:09;101003.72;;;34.06
63689;BMP280;54895;40.928;14.480;2023-07-31T04:39:36;101011.91;;;33.88
63689;BMP280;54895;40.928;14.480;2023-07-31T04:42:02;101009.31;;;34.10
63689;BMP280;54895;40.928;14.480;2023-07-31T04:44:28;101007.69;;;33.81
63689;BMP280;54895;40.928;14.480;2023-07-31T04:46:54;101018.13;;;33.91
63689;BMP280;54895;40.928;14.480;2023-07-31T04:49:21;101020.03;;;33.72
63689;BMP280;54895;40.928;14.480;2023-07-31T04:51:48;101019.69;;;34.17
63689;BMP280;54895;40.928;14.480;2023-07-31T04:54:14;101019.19;;;34.53
63689;BMP280;54895;40.928;14.480;2023-07-31T04:56:43;101023.06;;;34.00
63689;BMP280;54895;40.928;14.480;2023-07-31T04:59:09;101023.28;;;34.38
63689;BMP280;54895;40.928;14.480;2023-07-31T05:01:35;101017.47;;;33.96
63689;BMP280;54895;40.928;14.480;2023-07-31T05:04:02;101015.16;;;34.72
63689;BMP280;54895;40.928;14.480;2023-07-31T05:06:29;101020.66;;;34.66
63689;BMP280;54895;40.928;14.480;2023-07-31T05:08:55;101017.66;;;34.22
63689;BMP280;54895;40.928;14.480;2023-07-31T05:11:21;101021.88;;;34.35
63689;BMP280;54895;40.928;14.480;2023-07-31T05:13:47;101025.94;;;34.22
63689;BMP280;54895;40.928;14.480;2023-07-31T05:16:14;101022.63;;;34.39
63689;BMP280;54895;40.928;14.480;2023-07-31T05:18:40;101018.47;;;34.44
63689;BMP280;54895;40.928;14.480;2023-07-31T05:21:06;101019.06;;;34.29
63689;BMP280;54895;40.928;14.480;2023-07-31T05:23:33;101020.66;;;34.60
63689;BMP280;54895;40.928;14.480;2023-07-31T05:26:04;101017.94;;;34.74
63689;BMP280;54895;40.928;14.480;2023-07-31T05:32:35;101018.75;;;35.20
63689;BMP280;54895;40.928;14.480;2023-07-31T05:35:05;101032.63;;;35.97
63689;BMP280;54895;40.928;14.480;2023-07-31T05:37:31;101030.53;;;35.24
63689;BMP280;54895;40.928;14.480;2023-07-31T05:39:57;101028.47;;;35.27
63689;BMP280;54895;40.928;14.480;2023-07-31T05:42:24;101028.47;;;36.08
63689;BMP280;54895;40.928;14.480;2023-07-31T05:44:50;101031.91;;;36.05
63689;BMP280;54895;40.928;14.480;2023-07-31T05:47:17;101033.13;;;36.69
63689;BMP280;54895;40.928;14.480;2023-07-31T05:49:43;101033.78;;;36.70
63689;BMP280;54895;40.928;14.480;2023-07-31T05:52:10;101042.66;;;37.00
63689;BMP280;54895;40.928;14.480;2023-07-31T05:54:36;101034.47;;;36.72
63689;BMP280;54895;40.928;14.480;2023-07-31T05:57:02;101042.00;;;36.96
63689;BMP280;54895;40.928;14.480;2023-07-31T05:59:29;101041.91;;;37.08
63689;BMP280;54895;40.928;14.480;2023-07-31T06:01:57;101037.88;;;36.89
63689;BMP280;54895;40.928;14.480;2023-07-31T06:04:23;101034.06;;;37.38
63689;BMP280;54895;40.928;14.480;2023-07-31T06:06:52;101039.22;;;37.86
63689;BMP280;54895;40.928;14.480;2023-07-31T06:09:18;101028.41;;;37.54
63689;BMP280;54895;40.928;14.480;2023-07-31T06:11:45;101036.84;;;37.40
63689;BMP280;54895;40.928;14.480;2023-07-31T06:14:12;101032.69;;;37.35
63689;BMP280;54895;40.928;14.480;2023-07-31T06:16:38;101032.09;;;37.98
63689;BMP280;54895;40.928;14.480;2023-07-31T06:19:04;101025.06;;;38.07
63689;BMP280;54895;40.928;14.480;2023-07-31T06:21:30;101024.34;;;38.11
63689;BMP280;54895;40.928;14.480;2023-07-31T06:23:57;101032.81;;;37.99
63689;BMP280;54895;40.928;14.480;2023-07-31T06:26:23;101036.19;;;38.07
63689;BMP280;54895;40.928;14.480;2023-07-31T06:32:31;101040.63;;;37.83
63689;BMP280;54895;40.928;14.480;2023-07-31T06:34:57;101037.94;;;37.73
63689;BMP280;54895;40.928;14.480;2023-07-31T06:37:23;101034.88;;;38.00
63689;BMP280;54895;40.928;14.480;2023-07-31T06:39:49;101028.47;;;38.14
63689;BMP280;54895;40.928;14.480;2023-07-31T06:42:16;101029.38;;;39.03
63689;BMP280;54895;40.928;14.480;2023-07-31T06:44:42;101027.63;;;38.27
63689;BMP280;54895;40.928;14.480;2023-07-31T06:47:08;101027.22;;;38.59
63689;BMP280;54895;40.928;14.480;2023-07-31T06:49:34;101023.06;;;38.58
63689;BMP280;54895;40.928;14.480;2023-07-31T06:52:01;101026.91;;;38.81
63689;BMP280;54895;40.928;14.480;2023-07-31T06:54:27;101017.38;;;38.66
63689;BMP280;54895;40.928;14.480;2023-07-31T06:56:53;101015.13;;;38.24
63689;BMP280;54895;40.928;14.480;2023-07-31T06:59:20;101013.84;;;38.17
63689;BMP280;54895;40.928;14.480;2023-07-31T07:01:46;101019.41;;;38.15
63689;BMP280;54895;40.928;14.480;2023-07-31T07:04:13;101005.03;;;38.53
63689;BMP280;54895;40.928;14.480;2023-07-31T07:06:40;101011.34;;;38.98
63689;BMP280;54895;40.928;14.480;2023-07-31T07:09:06;101004.81;;;39.15
63689;BMP280;54895;40.928;14.480;2023-07-31T07:11:32;100997.09;;;39.20
63689;BMP280;54895;40.928;14.480;2023-07-31T07:13:58;101002.47;;;39.30
63689;BMP280;54895;40.928;14.480;2023-07-31T07:16:25;100999.28;;;39.53
63689;BMP280;54895;40.928;14.480;2023-07-31T07:18:51;101004.31;;;39.81
63689;BMP280;54895;40.928;14.480;2023-07-31T07:21:18;100999.44;;;39.80
63689;BMP280;54895;40.928;14.480;2023-07-31T07:23:44;101007.44;;;39.63
63689;BMP280;54895;40.928;14.480;2023-07-31T07:26:10;100994.91;;;38.82
63689;BMP280;54895;40.928;14.480;2023-07-31T07:32:49;100998.38;;;39.27
63689;BMP280;54895;40.928;14.480;2023-07-31T07:35:15;100999.16;;;39.59
63689;BMP280;54895;40.928;14.480;2023-07-31T07:37:41;101003.09;;;39.72
63689;BMP280;54895;40.928;14.480;2023-07-31T07:40:08;101001.78;;;39.31
63689;BMP280;54895;40.928;14.480;2023-07-31T07:42:34;101002.09;;;39.11
63689;BMP280;54895;40.928;14.480;2023-07-31T07:45:01;100997.09;;;39.20
63689;BMP280;54895;40.928;14.480;2023-07-31T07:47:27;101002.56;;;39.64
63689;BMP280;54895;40.928;14.480;2023-07-31T07:49:56;100995.94;;;39.83
63689;BMP280;54895;40.928;14.480;2023-07-31T07:52:23;100998.34;;;40.01
63689;BMP280;54895;40.928;14.480;2023-07-31T07:54:49;101008.38;;;39.88
63689;BMP280;54895;40.928;14.480;2023-07-31T07:57:16;101005.59;;;39.86
63689;BMP280;54895;40.928;14.480;2023-07-31T07:59:42;100994.16;;;39.28
63689;BMP280;54895;40.928;14.480;2023-07-31T08:02:08;100998.25;;;40.05
63689;BMP280;54895;40.928;14.480;2023-07-31T08:04:34;100991.16;;;40.12
63689;BMP280;54895;40.928;14.480;2023-07-31T08:07:01;101001.72;;;40.38
63689;BMP280;54895;40.928;14.480;2023-07-31T08:09:27;100999.88;;;39.58
63689;BMP280;54895;40.928;14.480;2023-07-31T08:11:53;100999.97;;;39.54
63689;BMP280;54895;40.928;14.480;2023-07-31T08:14:20;100992.31;;;39.89
63689;BMP280;54895;40.928;14.480;2023-07-31T08:16:46;100995.91;;;40.17
63689;BMP280;54895;40.928;14.480;2023-07-31T08:19:13;100999.81;;;39.98
63689;BMP280;54895;40.928;14.480;2023-07-31T08:21:39;100988.41;;;39.37
63689;BMP280;54895;40.928;14.480;2023-07-31T08:24:08;100997.63;;;39.68
63689;BMP280;54895;40.928;14.480;2023-07-31T08:26:34;100992.50;;;40.13
63689;BMP280;54895;40.928;14.480;2023-07-31T08:29:01;101004.34;;;40.46
63689;BMP280;54895;40.928;14.480;2023-07-31T08:31:32;100996.31;;;40.90
63689;BMP280;54895;40.928;14.480;2023-07-31T08:34:07;101002.88;;;40.79
63689;BMP280;54895;40.928;14.480;2023-07-31T08:36:33;100996.59;;;40.50
63689;BMP280;54895;40.928;14.480;2023-07-31T08:38:59;100993.56;;;41.67
63689;BMP280;54895;40.928;14.480;2023-07-31T08:41:27;100990.72;;;41.93
63689;BMP280;54895;40.928;14.480;2023-07-31T08:43:55;101008.28;;;41.13
63689;BMP280;54895;40.928;14.480;2023-07-31T08:46:21;101006.78;;;40.62
63689;BMP280;54895;40.928;14.480;2023-07-31T08:48:50;101003.00;;;40.45
63689;BMP280;54895;40.928;14.480;2023-07-31T08:51:17;101011.47;;;40.69
63689;BMP280;54895;40.928;14.480;2023-07-31T08:53:44;101010.00;;;41.02
63689;BMP280;54895;40.928;14.480;2023-07-31T08:56:11;100999.22;;;40.26
63689;BMP280;54895;40.928;14.480;2023-07-31T08:58:41;101001.59;;;40.11
63689;BMP280;54895;40.928;14.480;2023-07-31T09:01:08;101007.19;;;39.77
63689;BMP280;54895;40.928;14.480;2023-07-31T09:03:35;100996.50;;;40.22
63689;BMP280;54895;40.928;14.480;2023-07-31T09:06:04;101020.31;;;40.17
63689;BMP280;54895;40.928;14.480;2023-07-31T09:08:32;101013.09;;;40.28
63689;BMP280;54895;40.928;14.480;2023-07-31T09:11:00;101015.53;;;40.13
63689;BMP280;54895;40.928;14.480;2023-07-31T09:13:29;101010.06;;;41.53
63689;BMP280;54895;40.928;14.480;2023-07-31T09:15:56;101008.16;;;41.19
63689;BMP280;54895;40.928;14.480;2023-07-31T09:18:23;101000.38;;;41.98
63689;BMP280;54895;40.928;14.480;2023-07-31T09:21:05;101010.38;;;41.65
63689;BMP280;54895;40.928;14.480;2023-07-31T09:23:46;101003.38;;;42.80
63689;BMP280;54895;40.928;14.480;2023-07-31T09:26:36;101004.72;;;42.60
63689;BMP280;54895;40.928;14.480;2023-07-31T09:33:03;101002.88;;;42.31
63689;BMP280;54895;40.928;14.480;2023-07-31T09:35:34;101006.56;;;40.71
63689;BMP280;54895;40.928;14.480;2023-07-31T09:38:07;101003.66;;;40.13
63689;BMP280;54895;40.928;14.480;2023-07-31T09:40:40;101005.13;;;40.10
63689;BMP280;54895;40.928;14.480;2023-07-31T09:43:12;101009.50;;;39.65
63689;BMP280;54895;40.928;14.480;2023-07-31T09:45:40;100995.56;;;39.65
63689;BMP280;54895;40.928;14.480;2023-07-31T09:48:08;101000.69;;;39.50
63689;BMP280;54895;40.928;14.480;2023-07-31T09:50:37;100993.38;;;39.33
63689;BMP280;54895;40.928;14.480;2023-07-31T09:53:05;100994.59;;;39.02
63689;BMP280;54895;40.928;14.480;2023-07-31T09:55:32;101001.28;;;39.57
63689;BMP280;54895;40.928;14.480;2023-07-31T09:57:59;100996.22;;;39.67
63689;BMP280;54895;40.928;14.480;2023-07-31T10:00:26;100997.25;;;40.20
63689;BMP280;54895;40.928;14.480;2023-07-31T10:02:58;100999.94;;;39.90
63689;BMP280;54895;40.928;14.480;2023-07-31T10:05:30;100993.75;;;40.20
63689;BMP280;54895;40.928;14.480;2023-07-31T10:07:57;100995.28;;;40.75
63689;BMP280;54895;40.928;14.480;2023-07-31T10:10:24;100991.84;;;40.45
63689;BMP280;54895;40.928;14.480;2023-07-31T10:12:56;100990.63;;;40.03
63689;BMP280;54895;40.928;14.480;2023-07-31T10:15:22;100996.59;;;39.84
63689;BMP280;54895;40.928;14.480;2023-07-31T10:17:50;100997.44;;;40.73
63689;BMP280;54895;40.928;14.480;2023-07-31T10:20:17;100997.53;;;40.97
63689;BMP280;54895;40.928;14.480;2023-07-31T10:22:44;100992.91;;;40.88
63689;BMP280;54895;40.928;14.480;2023-07-31T10:25:12;100979.91;;;41.55
63689;BMP280;54895;40.928;14.480;2023-07-31T10:27:39;100982.66;;;41.57
63689;BMP280;54895;40.928;14.480;2023-07-31T10:30:08;100966.25;;;41.94
63689;BMP280;54895;40.928;14.480;2023-07-31T10:32:38;100971.44;;;41.84
63689;BMP280;54895;40.928;14.480;2023-07-31T10:35:05;100986.16;;;41.05
63689;BMP280;54895;40.928;14.480;2023-07-31T10:37:42;100969.03;;;41.70
63689;BMP280;54895;40.928;14.480;2023-07-31T10:42:47;100962.38;;;41.08
63689;BMP280;54895;40.928;14.480;2023-07-31T10:45:24;100957.72;;;41.25
63689;BMP280;54895;40.928;14.480;2023-07-31T10:48:01;100965.94;;;41.55
63689;BMP280;54895;40.928;14.480;2023-07-31T10:50:30;100954.94;;;41.98
63689;BMP280;54895;40.928;14.480;2023-07-31T10:52:58;100957.75;;;41.23
63689;BMP280;54895;40.928;14.480;2023-07-31T10:55:30;100952.38;;;40.89
63689;BMP280;54895;40.928;14.480;2023-07-31T10:59:06;100964.63;;;40.45
63689;BMP280;54895;40.928;14.480;2023-07-31T11:01:55;100954.16;;;41.77
63689;BMP280;54895;40.928;14.480;2023-07-31T11:04:29;100949.41;;;41.96
63689;BMP280;54895;40.928;14.480;2023-07-31T11:07:00;100953.31;;;41.83
63689;BMP280;54895;40.928;14.480;2023-07-31T11:09:29;100946.41;;;42.67
63689;BMP280;54895;40.928;14.480;2023-07-31T11:11:56;100935.44;;;42.18
63689;BMP280;54895;40.928;14.480;2023-07-31T11:14:23;100937.97;;;42.69
63689;BMP280;54895;40.928;14.480;2023-07-31T11:16:50;100934.06;;;42.17
63689;BMP280;54895;40.928;14.480;2023-07-31T11:19:22;100932.72;;;42.37
63689;BMP280;54895;40.928;14.480;2023-07-31T11:21:51;100933.25;;;42.21
63689;BMP280;54895;40.928;14.480;2023-07-31T11:24:17;100923.88;;;43.12
63689;BMP280;54895;40.928;14.480;2023-07-31T11:26:51;100930.25;;;43.08
63689;BMP280;54895;40.928;14.480;2023-07-31T11:33:09;100919.50;;;42.35
63689;BMP280;54895;40.928;14.480;2023-07-31T11:35:47;100915.72;;;42.65
63689;BMP280;54895;40.928;14.480;2023-07-31T11:38:32;100923.97;;;41.57
63689;BMP280;54895;40.928;14.480;2023-07-31T11:41:01;100925.03;;;42.37
63689;BMP280;54895;40.928;14.480;2023-07-31T11:43:37;100924.16;;;42.83
63689;BMP280;54895;40.928;14.480;2023-07-31T11:46:03;100915.16;;;42.81
63689;BMP280;54895;40.928;14.480;2023-07-31T11:48:32;100916.00;;;42.14
63689;BMP280;54895;40.928;14.480;2023-07-31T11:51:04;100916.13;;;42.94
63689;BMP280;54895;40.928;14.480;2023-07-31T11:56:07;100899.50;;;43.26
63689;BMP280;54895;40.928;14.480;2023-07-31T11:58:35;100885.66;;;43.94
63689;BMP280;54895;40.928;14.480;2023-07-31T12:01:03;100885.06;;;43.00
63689;BMP280;54895;40.928;14.480;2023-07-31T12:03:31;100889.41;;;42.56
63689;BMP280;54895;40.928;14.480;2023-07-31T12:05:58;100885.38;;;42.92
63689;BMP280;54895;40.928;14.480;2023-07-31T12:08:25;100881.91;;;43.10
63689;BMP280;54895;40.928;14.480;2023-07-31T12:10:52;100874.59;;;43.55
63689;BMP280;54895;40.928;14.480;2023-07-31T12:13:25;100876.81;;;42.96
63689;BMP280;54895;40.928;14.480;2023-07-31T12:15:57;100879.13;;;42.71
63689;BMP280;54895;40.928;14.480;2023-07-31T12:18:27;100873.09;;;42.42
63689;BMP280;54895;40.928;14.480;2023-07-31T12:20:56;100865.81;;;43.28
63689;BMP280;54895;40.928;14.480;2023-07-31T12:23:25;100870.88;;;43.24
63689;BMP280;54895;40.928;14.480;2023-07-31T12:26:11;100870.66;;;43.12
63689;BMP280;54895;40.928;14.480;2023-07-31T12:28:44;100863.81;;;42.68
63689;BMP280;54895;40.928;14.480;2023-07-31T12:31:18;100869.75;;;42.58
63689;BMP280;54895;40.928;14.480;2023-07-31T12:33:46;100868.81;;;42.45
63689;BMP280;54895;40.928;14.480;2023-07-31T12:36:16;100862.03;;;41.73
63689;BMP280;54895;40.928;14.480;2023-07-31T12:38:42;100856.97;;;42.22
63689;BMP280;54895;40.928;14.480;2023-07-31T12:41:09;100847.34;;;41.75
63689;BMP280;54895;40.928;14.480;2023-07-31T12:43:37;100843.94;;;41.48
63689;BMP280;54895;40.928;14.480;2023-07-31T12:46:04;100846.28;;;40.89
63689;BMP280;54895;40.928;14.480;2023-07-31T12:48:32;100847.09;;;40.85
63689;BMP280;54895;40.928;14.480;2023-07-31T12:50:58;100848.88;;;40.70
63689;BMP280;54895;40.928;14.480;2023-07-31T12:53:24;100854.50;;;40.95
63689;BMP280;54895;40.928;14.480;2023-07-31T12:55:50;100846.31;;;41.13
63689;BMP280;54895;40.928;14.480;2023-07-31T12:58:17;100855.75;;;41.26
63689;BMP280;54895;40.928;14.480;2023-07-31T13:00:43;100852.13;;;41.54
63689;BMP280;54895;40.928;14.480;2023-07-31T13:03:09;100849.28;;;41.56
63689;BMP280;54895;40.928;14.480;2023-07-31T13:05:36;100848.97;;;42.10
63689;BMP280;54895;40.928;14.480;2023-07-31T13:08:03;100855.50;;;41.81
63689;BMP280;54895;40.928;14.480;2023-07-31T13:10:29;100852.22;;;42.39
63689;BMP280;54895;40.928;14.480;2023-07-31T13:12:56;100837.00;;;41.92
63689;BMP280;54895;40.928;14.480;2023-07-31T13:15:22;100844.81;;;41.87
63689;BMP280;54895;40.928;14.480;2023-07-31T13:17:48;100841.44;;;42.27
63689;BMP280;54895;40.928;14.480;2023-07-31T13:20:15;100838.81;;;42.21
63689;BMP280;54895;40.928;14.480;2023-07-31T13:22:41;100837.44;;;42.00
63689;BMP280;54895;40.928;14.480;2023-07-31T13:25:07;100827.09;;;42.37
63689;BMP280;54895;40.928;14.480;2023-07-31T13:27:35;100815.31;;;42.73
63689;BMP280;54895;40.928;14.480;2023-07-31T13:33:34;100829.13;;;42.39
63689;BMP280;54895;40.928;14.480;2023-07-31T13:36:01;100816.72;;;42.54
63689;BMP280;54895;40.928;14.480;2023-07-31T13:38:27;100812.75;;;42.06
63689;BMP280;54895;40.928;14.480;2023-07-31T13:40:53;100804.84;;;42.33
63689;BMP280;54895;40.928;14.480;2023-07-31T13:43:19;100796.91;;;42.60
63689;BMP280;54895;40.928;14.480;2023-07-31T13:45:46;100806.25;;;41.92
63689;BMP280;54895;40.928;14.480;2023-07-31T13:48:12;100796.44;;;41.70
63689;BMP280;54895;40.928;14.480;2023-07-31T13:50:39;100808.19;;;41.75
63689;BMP280;54895;40.928;14.480;2023-07-31T13:53:05;100803.69;;;41.61
63689;BMP280;54895;40.928;14.480;2023-07-31T13:55:33;100807.31;;;42.43
63689;BMP280;54895;40.928;14.480;2023-07-31T13:58:00;100817.94;;;41.76
63689;BMP280;54895;40.928;14.480;2023-07-31T14:00:26;100810.91;;;41.77
63689;BMP280;54895;40.928;14.480;2023-07-31T14:02:54;100805.31;;;41.77
63689;BMP280;54895;40.928;14.480;2023-07-31T14:05:20;100814.25;;;41.36
63689;BMP280;54895;40.928;14.480;2023-07-31T14:07:47;100812.19;;;40.86
63689;BMP280;54895;40.928;14.480;2023-07-31T14:10:13;100812.53;;;41.70
63689;BMP280;54895;40.928;14.480;2023-07-31T14:12:39;100815.34;;;42.12
63689;BMP280;54895;40.928;14.480;2023-07-31T14:15:06;100813.97;;;41.69
63689;BMP280;54895;40.928;14.480;2023-07-31T14:17:32;100824.56;;;41.87
63689;BMP280;54895;40.928;14.480;2023-07-31T14:19:59;100830.34;;;40.85
63689;BMP280;54895;40.928;14.480;2023-07-31T14:22:29;100827.06;;;40.51
63689;BMP280;54895;40.928;14.480;2023-07-31T14:24:55;100835.53;;;40.47
63689;BMP280;54895;40.928;14.480;2023-07-31T14:27:22;100834.22;;;40.44
63689;BMP280;54895;40.928;14.480;2023-07-31T14:33:32;100807.91;;;40.89
63689;BMP280;54895;40.928;14.480;2023-07-31T14:35:59;100813.38;;;40.41
63689;BMP280;54895;40.928;14.480;2023-07-31T14:38:25;100808.47;;;40.69
63689;BMP280;54895;40.928;14.480;2023-07-31T14:40:51;100803.91;;;40.82
63689;BMP280;54895;40.928;14.480;2023-07-31T14:43:17;100803.41;;;40.50
63689;BMP280;54895;40.928;14.480;2023-07-31T14:45:44;100832.56;;;40.55